sensor_id;sensor_type;location;lat;lon;timestamp;pressure;altitude;pressure_sealevel;temperature;humidity
9009;BME280;62813;51.424;6.762;2023-03-26T00:01:06;100506.19;;;9.19;88.03
9009;BME280;62813;51.424;6.762;2023-03-26T00:03:34;100504.50;;;9.18;88.60
9009;BME280;62813;51.424;6.762;2023-03-26T00:06:04;100501.78;;;9.21;88.40
9009;BME280;62813;51.424;6.762;2023-03-26T00:08:34;100499.19;;;9.21;88.17
9009;BME280;62813;51.424;6.762;2023-03-26T00:11:02;100500.63;;;9.28;88.00
9009;BME280;62813;51.424;6.762;2023-03-26T00:13:30;100497.28;;;9.26;88.12
9009;BME280;62813;51.424;6.762;2023-03-26T00:15:58;100500.78;;;9.25;87.63
9009;BME280;62813;51.424;6.762;2023-03-26T00:18:25;100493.84;;;9.26;87.23
9009;BME280;62813;51.424;6.762;2023-03-26T00:21:05;100499.94;;;9.25;88.00
9009;BME280;62813;51.424;6.762;2023-03-26T00:23:34;100498.19;;;9.25;87.70
9009;BME280;62813;51.424;6.762;2023-03-26T00:26:02;100493.84;;;9.26;87.65
9009;BME280;62813;51.424;6.762;2023-03-26T00:28:29;100499.72;;;9.29;87.70
9009;BME280;62813;51.424;6.762;2023-03-26T00:30:57;100495.34;;;9.31;87.55
9009;BME280;62813;51.424;6.762;2023-03-26T00:33:25;100500.53;;;9.31;87.48
9009;BME280;62813;51.424;6.762;2023-03-26T00:35:54;100499.56;;;9.34;87.88
9009;BME280;62813;51.424;6.762;2023-03-26T00:38:22;100497.81;;;9.34;87.61
9009;BME280;62813;51.424;6.762;2023-03-26T00:40:50;100492.75;;;9.31;87.66
9009;BME280;62813;51.424;6.762;2023-03-26T00:43:18;100490.28;;;9.28;86.97
9009;BME280;62813;51.424;6.762;2023-03-26T00:45:51;100486.91;;;9.26;87.04
9009;BME280;62813;51.424;6.762;2023-03-26T00:48:19;100488.59;;;9.27;87.32
9009;BME280;62813;51.424;6.762;2023-03-26T00:50:59;100490.41;;;9.25;86.92
9009;BME280;62813;51.424;6.762;2023-03-26T00:53:26;100490.28;;;9.28;86.78
9009;BME280;62813;51.424;6.762;2023-03-26T00:55:53;100485.09;;;9.28;87.46
9009;BME280;62813;51.424;6.762;2023-03-26T00:58:26;100483.78;;;9.18;86.99
9009;BME280;62813;51.424;6.762;2023-03-26T01:00:58;100484.56;;;9.20;86.87
9009;BME280;62813;51.424;6.762;2023-03-26T01:03:26;100477.56;;;9.22;86.78
9009;BME280;62813;51.424;6.762;2023-03-26T01:11:12;100468.00;;;9.24;86.34
9009;BME280;62813;51.424;6.762;2023-03-26T01:13:50;100469.63;;;9.27;86.08
9009;BME280;62813;51.424;6.762;2023-03-26T01:16:26;100460.16;;;9.26;86.35
9009;BME280;62813;51.424;6.762;2023-03-26T01:18:54;100462.00;;;9.23;86.10
9009;BME280;62813;51.424;6.762;2023-03-26T01:21:26;100457.50;;;9.27;85.99
9009;BME280;62813;51.424;6.762;2023-03-26T01:23:58;100462.69;;;9.27;85.45
9009;BME280;62813;51.424;6.762;2023-03-26T01:35:05;100444.75;;;9.22;85.35
9009;BME280;62813;51.424;6.762;2023-03-26T01:40:35;100443.03;;;9.23;84.80
9009;BME280;62813;51.424;6.762;2023-03-26T01:45:59;100438.84;;;9.19;84.62
9009;BME280;62813;51.424;6.762;2023-03-26T01:48:32;100428.63;;;9.16;84.88
9009;BME280;62813;51.424;6.762;2023-03-26T01:51:02;100422.78;;;9.11;84.81
9009;BME280;62813;51.424;6.762;2023-03-26T01:53:29;100419.34;;;9.10;84.81
9009;BME280;62813;51.424;6.762;2023-03-26T02:01:28;100403.38;;;8.99;84.58
9009;BME280;62813;51.424;6.762;2023-03-26T02:04:15;100400.06;;;8.95;84.36
9009;BME280;62813;51.424;6.762;2023-03-26T02:06:48;100402.66;;;8.95;84.31
9009;BME280;62813;51.424;6.762;2023-03-26T02:09:21;100404.50;;;8.92;84.38
9009;BME280;62813;51.424;6.762;2023-03-26T02:11:51;100405.34;;;8.92;84.39
9009;BME280;62813;51.424;6.762;2023-03-26T02:14:19;100398.31;;;8.96;84.53
9009;BME280;62813;51.424;6.762;2023-03-26T02:16:46;100399.22;;;8.95;84.53
9009;BME280;62813;51.424;6.762;2023-03-26T02:19:13;100396.69;;;8.93;84.70
9009;BME280;62813;51.424;6.762;2023-03-26T02:21:47;100387.84;;;8.99;84.79
9009;BME280;62813;51.424;6.762;2023-03-26T02:24:18;100386.81;;;9.03;84.90
9009;BME280;62813;51.424;6.762;2023-03-26T02:26:45;100381.53;;;9.06;84.66
9009;BME280;62813;51.424;6.762;2023-03-26T02:29:12;100382.38;;;9.07;84.89
9009;BME280;62813;51.424;6.762;2023-03-26T02:31:39;100377.09;;;9.10;84.80
9009;BME280;62813;51.424;6.762;2023-03-26T02:34:06;100374.69;;;9.05;85.00
9009;BME280;62813;51.424;6.762;2023-03-26T02:36:33;100368.53;;;9.08;84.66
9009;BME280;62813;51.424;6.762;2023-03-26T02:39:01;100364.31;;;9.05;85.32
9009;BME280;62813;51.424;6.762;2023-03-26T02:41:29;100362.34;;;9.12;84.65
9009;BME280;62813;51.424;6.762;2023-03-26T02:43:56;100365.84;;;9.11;84.67
9009;BME280;62813;51.424;6.762;2023-03-26T02:46:22;100359.88;;;9.09;84.76
9009;BME280;62813;51.424;6.762;2023-03-26T02:48:49;100358.41;;;9.02;84.86
9009;BME280;62813;51.424;6.762;2023-03-26T02:51:15;100349.56;;;9.07;84.74
9009;BME280;62813;51.424;6.762;2023-03-26T02:53:43;100345.22;;;9.08;85.00
9009;BME280;62813;51.424;6.762;2023-03-26T02:56:10;100347.03;;;9.06;84.90
9009;BME280;62813;51.424;6.762;2023-03-26T02:58:37;100333.25;;;9.05;84.89
9009;BME280;62813;51.424;6.762;2023-03-26T03:01:04;100336.00;;;9.01;84.67
9009;BME280;62813;51.424;6.762;2023-03-26T03:03:31;100323.00;;;9.02;84.34
9009;BME280;62813;51.424;6.762;2023-03-26T03:05:58;100310.00;;;9.04;84.41
9009;BME280;62813;51.424;6.762;2023-03-26T03:08:28;100308.22;;;9.06;84.50
9009;BME280;62813;51.424;6.762;2023-03-26T03:13:22;100300.38;;;9.07;84.41
9009;BME280;62813;51.424;6.762;2023-03-26T03:15:49;100304.59;;;9.10;84.33
9009;BME280;62813;51.424;6.762;2023-03-26T03:18:16;100297.66;;;9.10;84.63
9009;BME280;62813;51.424;6.762;2023-03-26T03:20:42;100295.16;;;9.09;84.55
9009;BME280;62813;51.424;6.762;2023-03-26T03:23:10;100294.47;;;9.04;84.62
9009;BME280;62813;51.424;6.762;2023-03-26T03:25:37;100293.63;;;9.03;84.65
9009;BME280;62813;51.424;6.762;2023-03-26T03:28:04;100285.03;;;9.03;85.12
9009;BME280;62813;51.424;6.762;2023-03-26T03:30:31;100286.78;;;9.02;84.77
9009;BME280;62813;51.424;6.762;2023-03-26T03:32:58;100287.59;;;9.03;85.01
9009;BME280;62813;51.424;6.762;2023-03-26T03:35:25;100281.47;;;9.05;84.71
9009;BME280;62813;51.424;6.762;2023-03-26T03:37:59;100284.91;;;9.06;85.20
9009;BME280;62813;51.424;6.762;2023-03-26T03:40:26;100280.63;;;9.05;85.25
9009;BME280;62813;51.424;6.762;2023-03-26T03:42:53;100271.16;;;9.04;85.22
9009;BME280;62813;51.424;6.762;2023-03-26T03:45:19;100275.44;;;9.05;85.53
9009;BME280;62813;51.424;6.762;2023-03-26T03:47:46;100264.25;;;9.04;85.21
9009;BME280;62813;51.424;6.762;2023-03-26T03:50:13;100266.06;;;9.02;85.02
9009;BME280;62813;51.424;6.762;2023-03-26T03:52:40;100259.31;;;8.98;85.01
9009;BME280;62813;51.424;6.762;2023-03-26T03:55:07;100256.91;;;8.93;85.12
9009;BME280;62813;51.424;6.762;2023-03-26T03:57:35;100261.31;;;8.91;85.06
9009;BME280;62813;51.424;6.762;2023-03-26T04:00:03;100253.56;;;8.91;85.23
9009;BME280;62813;51.424;6.762;2023-03-26T04:02:32;100260.66;;;8.86;84.84
9009;BME280;62813;51.424;6.762;2023-03-26T04:05:01;100257.22;;;8.86;85.33
9009;BME280;62813;51.424;6.762;2023-03-26T04:07:29;100254.78;;;8.83;84.97
9009;BME280;62813;51.424;6.762;2023-03-26T04:09:58;100248.78;;;8.82;85.25
9009;BME280;62813;51.424;6.762;2023-03-26T04:12:30;100242.75;;;8.82;85.39
9009;BME280;62813;51.424;6.762;2023-03-26T04:14:58;100245.34;;;8.82;85.20
9009;BME280;62813;51.424;6.762;2023-03-26T04:17:25;100238.41;;;8.82;85.42
9009;BME280;62813;51.424;6.762;2023-03-26T04:19:52;100234.91;;;8.83;85.01
9009;BME280;62813;51.424;6.762;2023-03-26T04:22:20;100235.69;;;8.85;84.99
9009;BME280;62813;51.424;6.762;2023-03-26T04:24:47;100226.25;;;8.84;84.65
9009;BME280;62813;51.424;6.762;2023-03-26T04:27:18;100227.09;;;8.85;84.95
9009;BME280;62813;51.424;6.762;2023-03-26T04:29:47;100224.56;;;8.83;85.02
9009;BME280;62813;51.424;6.762;2023-03-26T04:32:25;100216.72;;;8.85;84.70
9009;BME280;62813;51.424;6.762;2023-03-26T04:34:56;100221.06;;;8.84;84.43
9009;BME280;62813;51.424;6.762;2023-03-26T04:37:28;100220.16;;;8.85;84.85
9009;BME280;62813;51.424;6.762;2023-03-26T04:40:00;100203.72;;;8.86;84.50
9009;BME280;62813;51.424;6.762;2023-03-26T04:42:31;100199.38;;;8.87;84.67
9009;BME280;62813;51.424;6.762;2023-03-26T04:44:58;100202.81;;;8.87;84.47
9009;BME280;62813;51.424;6.762;2023-03-26T04:47:28;100207.13;;;8.88;84.26
9009;BME280;62813;51.424;6.762;2023-03-26T04:49:55;100196.75;;;8.88;84.50
9009;BME280;62813;51.424;6.762;2023-03-26T04:52:22;100199.38;;;8.87;84.25
9009;BME280;62813;51.424;6.762;2023-03-26T04:54:49;100190.84;;;8.85;84.25
9009;BME280;62813;51.424;6.762;2023-03-26T04:57:37;100186.53;;;8.85;83.94
9009;BME280;62813;51.424;6.762;2023-03-26T05:00:06;100182.31;;;8.83;84.36
9009;BME280;62813;51.424;6.762;2023-03-26T05:02:44;100172.16;;;8.78;84.08
9009;BME280;62813;51.424;6.762;2023-03-26T05:05:16;100172.94;;;8.80;84.56
9009;BME280;62813;51.424;6.762;2023-03-26T05:07:45;100166.03;;;8.81;84.63
9009;BME280;62813;51.424;6.762;2023-03-26T05:10:13;100160.78;;;8.82;85.09
9009;BME280;62813;51.424;6.762;2023-03-26T05:12:41;100153.94;;;8.81;84.92
9009;BME280;62813;51.424;6.762;2023-03-26T05:15:10;100150.44;;;8.82;84.95
9009;BME280;62813;51.424;6.762;2023-03-26T05:17:36;100148.75;;;8.81;85.46
9009;BME280;62813;51.424;6.762;2023-03-26T05:20:15;100150.28;;;8.85;85.71
9009;BME280;62813;51.424;6.762;2023-03-26T05:22:43;100149.44;;;8.85;85.55
9009;BME280;62813;51.424;6.762;2023-03-26T05:25:10;100143.59;;;8.81;86.04
9009;BME280;62813;51.424;6.762;2023-03-26T05:27:37;100134.06;;;8.82;86.24
9009;BME280;62813;51.424;6.762;2023-03-26T05:30:05;100134.06;;;8.82;86.38
9009;BME280;62813;51.424;6.762;2023-03-26T05:32:33;100136.59;;;8.83;86.13
9009;BME280;62813;51.424;6.762;2023-03-26T05:35:00;100131.41;;;8.83;86.60
9009;BME280;62813;51.424;6.762;2023-03-26T05:37:28;100132.06;;;8.88;86.88
9009;BME280;62813;51.424;6.762;2023-03-26T05:39:57;100127.66;;;8.90;87.27
9009;BME280;62813;51.424;6.762;2023-03-26T05:42:24;100120.66;;;8.92;87.21
9009;BME280;62813;51.424;6.762;2023-03-26T05:44:51;100125.81;;;8.92;87.33
9009;BME280;62813;51.424;6.762;2023-03-26T05:47:20;100125.97;;;8.89;87.47
9009;BME280;62813;51.424;6.762;2023-03-26T05:49:47;100112.38;;;8.84;87.34
9009;BME280;62813;51.424;6.762;2023-03-26T05:52:15;100117.41;;;8.87;87.64
9009;BME280;62813;51.424;6.762;2023-03-26T05:54:44;100109.94;;;8.81;87.56
9009;BME280;62813;51.424;6.762;2023-03-26T05:57:11;100103.72;;;8.85;87.92
9009;BME280;62813;51.424;6.762;2023-03-26T05:59:38;100100.00;;;8.91;88.11
9009;BME280;62813;51.424;6.762;2023-03-26T06:02:05;100098.41;;;8.88;88.24
9009;BME280;62813;51.424;6.762;2023-03-26T06:04:32;100093.94;;;8.92;87.88
9009;BME280;62813;51.424;6.762;2023-03-26T06:06:58;100093.84;;;8.93;87.71
9009;BME280;62813;51.424;6.762;2023-03-26T06:09:25;100085.13;;;8.96;87.78
9009;BME280;62813;51.424;6.762;2023-03-26T06:11:52;100086.66;;;9.00;87.67
9009;BME280;62813;51.424;6.762;2023-03-26T06:14:19;100078.84;;;9.02;87.94
9009;BME280;62813;51.424;6.762;2023-03-26T06:16:46;100077.97;;;9.01;87.63
9009;BME280;62813;51.424;6.762;2023-03-26T06:19:13;100068.88;;;8.92;87.83
9009;BME280;62813;51.424;6.762;2023-03-26T06:21:39;100074.91;;;8.93;88.13
9009;BME280;62813;51.424;6.762;2023-03-26T06:24:06;100072.38;;;8.91;87.75
9009;BME280;62813;51.424;6.762;2023-03-26T06:26:33;100074.81;;;8.94;87.50
9009;BME280;62813;51.424;6.762;2023-03-26T06:29:00;100067.97;;;8.93;87.48
9009;BME280;62813;51.424;6.762;2023-03-26T06:31:26;100064.41;;;8.96;87.34
9009;BME280;62813;51.424;6.762;2023-03-26T06:33:54;100064.41;;;8.96;87.36
9009;BME280;62813;51.424;6.762;2023-03-26T06:36:21;100061.88;;;8.94;87.65
9009;BME280;62813;51.424;6.762;2023-03-26T06:38:48;100065.66;;;8.87;87.87
9009;BME280;62813;51.424;6.762;2023-03-26T06:41:15;100057.88;;;8.87;87.81
9009;BME280;62813;51.424;6.762;2023-03-26T06:43:42;100058.41;;;8.95;88.17
9009;BME280;62813;51.424;6.762;2023-03-26T06:46:09;100060.09;;;8.96;88.27
9009;BME280;62813;51.424;6.762;2023-03-26T06:48:36;100052.97;;;9.02;87.95
9009;BME280;62813;51.424;6.762;2023-03-26T06:51:03;100051.13;;;9.04;87.90
9009;BME280;62813;51.424;6.762;2023-03-26T06:53:30;100051.00;;;9.07;88.06
9009;BME280;62813;51.424;6.762;2023-03-26T06:55:57;100051.84;;;9.07;87.62
9009;BME280;62813;51.424;6.762;2023-03-26T06:58:24;100043.38;;;9.04;87.36
9009;BME280;62813;51.424;6.762;2023-03-26T07:00:54;100041.50;;;9.07;87.54
9009;BME280;62813;51.424;6.762;2023-03-26T07:03:22;100037.16;;;9.08;87.45
9009;BME280;62813;51.424;6.762;2023-03-26T07:05:49;100038.25;;;9.02;87.95
9009;BME280;62813;51.424;6.762;2023-03-26T07:08:15;100030.38;;;9.05;87.35
9009;BME280;62813;51.424;6.762;2023-03-26T07:10:42;100028.75;;;9.03;87.45
9009;BME280;62813;51.424;6.762;2023-03-26T07:13:09;100028.09;;;8.97;88.12
9009;BME280;62813;51.424;6.762;2023-03-26T07:15:36;100021.81;;;9.03;87.84
9009;BME280;62813;51.424;6.762;2023-03-26T07:18:03;100022.59;;;9.05;87.83
9009;BME280;62813;51.424;6.762;2023-03-26T07:20:31;100012.38;;;9.02;87.71
9009;BME280;62813;51.424;6.762;2023-03-26T07:22:58;100009.72;;;9.04;87.92
9009;BME280;62813;51.424;6.762;2023-03-26T07:25:26;100012.19;;;9.07;88.34
9009;BME280;62813;51.424;6.762;2023-03-26T07:28:20;100006.88;;;9.10;88.50
9009;BME280;62813;51.424;6.762;2023-03-26T07:31:06;100004.13;;;9.13;89.20
9009;BME280;62813;51.424;6.762;2023-03-26T07:36:19;99999.03;;;9.11;88.37
9009;BME280;62813;51.424;6.762;2023-03-26T07:38:58;99993.00;;;9.11;88.72
9009;BME280;62813;51.424;6.762;2023-03-26T07:41:45;99988.59;;;9.13;88.71
9009;BME280;62813;51.424;6.762;2023-03-26T07:44:34;99991.09;;;9.14;88.60
9009;BME280;62813;51.424;6.762;2023-03-26T07:47:31;99986.63;;;9.18;88.32
9009;BME280;62813;51.424;6.762;2023-03-26T07:49:58;99985.56;;;9.22;88.44
9009;BME280;62813;51.424;6.762;2023-03-26T07:52:26;99979.50;;;9.23;88.44
9009;BME280;62813;51.424;6.762;2023-03-26T07:54:53;99977.50;;;9.28;88.62
9009;BME280;62813;51.424;6.762;2023-03-26T08:00:39;99977.38;;;9.31;88.87
9009;BME280;62813;51.424;6.762;2023-03-26T08:03:29;99979.88;;;9.33;89.03
9009;BME280;62813;51.424;6.762;2023-03-26T08:06:24;99980.44;;;9.39;88.50
9009;BME280;62813;51.424;6.762;2023-03-26T08:11:45;99979.34;;;9.43;88.49
9009;BME280;62813;51.424;6.762;2023-03-26T08:17:04;99967.78;;;9.50;89.09
9009;BME280;62813;51.424;6.762;2023-03-26T08:22:13;99979.97;;;9.48;89.55
9009;BME280;62813;51.424;6.762;2023-03-26T08:24:55;99973.75;;;9.53;89.40
9009;BME280;62813;51.424;6.762;2023-03-26T08:27:38;99969.03;;;9.61;89.16
9009;BME280;62813;51.424;6.762;2023-03-26T08:30:22;99968.19;;;9.60;89.02
9009;BME280;62813;51.424;6.762;2023-03-26T08:33:03;99960.31;;;9.62;89.44
9009;BME280;62813;51.424;6.762;2023-03-26T08:35:39;99963.66;;;9.64;89.39
9009;BME280;62813;51.424;6.762;2023-03-26T08:38:10;99969.84;;;9.61;89.01
9009;BME280;62813;51.424;6.762;2023-03-26T09:10:17;99959.50;;;9.61;89.11
9009;BME280;62813;51.424;6.762;2023-03-26T09:30:14;99952.78;;;9.57;90.03
9009;BME280;62813;51.424;6.762;2023-03-26T09:33:20;99945.69;;;9.61;89.80
9009;BME280;62813;51.424;6.762;2023-03-26T09:42:28;99944.00;;;9.77;89.28
9009;BME280;62813;51.424;6.762;2023-03-26T09:47:35;99937.25;;;9.74;89.76
9009;BME280;62813;51.424;6.762;2023-03-26T09:50:17;99941.13;;;9.83;89.20
9009;BME280;62813;51.424;6.762;2023-03-26T09:53:24;99938.59;;;9.82;89.68
9009;BME280;62813;51.424;6.762;2023-03-26T09:55:52;99942.16;;;9.79;89.62
9009;BME280;62813;51.424;6.762;2023-03-26T10:07:37;99935.41;;;9.42;87.83
9009;BME280;62813;51.424;6.762;2023-03-26T10:10:28;99929.91;;;9.48;87.72
9009;BME280;62813;51.424;6.762;2023-03-26T10:13:03;99934.25;;;9.47;87.53
9009;BME280;62813;51.424;6.762;2023-03-26T10:21:25;99928.31;;;9.63;86.38
9009;BME280;62813;51.424;6.762;2023-03-26T10:24:18;99923.75;;;9.50;86.08
9009;BME280;62813;51.424;6.762;2023-03-26T10:41:11;99928.88;;;9.52;85.92
9009;BME280;62813;51.424;6.762;2023-03-26T10:43:52;99924.00;;;9.46;86.59
9009;BME280;62813;51.424;6.762;2023-03-26T10:51:44;99928.22;;;9.12;87.50
9009;BME280;62813;51.424;6.762;2023-03-26T10:54:55;99925.13;;;9.04;85.53
9009;BME280;62813;51.424;6.762;2023-03-26T10:57:31;99927.91;;;9.00;85.05
9009;BME280;62813;51.424;6.762;2023-03-26T11:00:12;99927.84;;;9.01;84.88
9009;BME280;62813;51.424;6.762;2023-03-26T11:05:45;99923.56;;;9.19;84.46
9009;BME280;62813;51.424;6.762;2023-03-26T11:08:20;99922.88;;;9.15;85.05
9009;BME280;62813;51.424;6.762;2023-03-26T11:11:28;99923.50;;;9.20;85.06
9009;BME280;62813;51.424;6.762;2023-03-26T11:16:30;99917.34;;;9.23;84.44
9009;BME280;62813;51.424;6.762;2023-03-26T11:19:13;99918.97;;;9.07;85.71
9009;BME280;62813;51.424;6.762;2023-03-26T11:22:47;99916.47;;;9.22;84.96
9009;BME280;62813;51.424;6.762;2023-03-26T11:24:55;99922.38;;;9.26;84.50
9009;BME280;62813;51.424;6.762;2023-03-26T11:28:06;99919.63;;;9.29;83.99
9009;BME280;62813;51.424;6.762;2023-03-26T11:33:11;99919.56;;;9.31;83.23
9009;BME280;62813;51.424;6.762;2023-03-26T11:35:48;99915.50;;;9.42;83.41
9009;BME280;62813;51.424;6.762;2023-03-26T11:38:28;99917.97;;;9.45;82.19
9009;BME280;62813;51.424;6.762;2023-03-26T11:40:58;99916.13;;;9.47;81.71
9009;BME280;62813;51.424;6.762;2023-03-26T11:43:32;99912.88;;;9.44;82.21
9009;BME280;62813;51.424;6.762;2023-03-26T11:46:02;99910.47;;;9.57;82.19
9009;BME280;62813;51.424;6.762;2023-03-26T11:48:34;99909.56;;;9.58;83.26
9009;BME280;62813;51.424;6.762;2023-03-26T11:51:06;99909.69;;;9.72;82.40
9009;BME280;62813;51.424;6.762;2023-03-26T11:53:34;99916.13;;;9.82;82.04
9009;BME280;62813;51.424;6.762;2023-03-26T11:56:13;99912.59;;;9.83;80.57
9009;BME280;62813;51.424;6.762;2023-03-26T11:59:02;99917.66;;;9.86;80.36
9009;BME280;62813;51.424;6.762;2023-03-26T12:01:51;99912.28;;;9.89;79.63
9009;BME280;62813;51.424;6.762;2023-03-26T12:04:26;99910.06;;;9.99;80.16
9009;BME280;62813;51.424;6.762;2023-03-26T12:07:06;99910.66;;;10.04;79.37
9009;BME280;62813;51.424;6.762;2023-03-26T12:09:34;99907.88;;;10.07;78.80
9009;BME280;62813;51.424;6.762;2023-03-26T12:12:03;99914.59;;;10.11;78.94
9009;BME280;62813;51.424;6.762;2023-03-26T12:14:33;99911.59;;;10.19;79.09
9009;BME280;62813;51.424;6.762;2023-03-26T12:19:59;99907.16;;;10.21;78.10
9009;BME280;62813;51.424;6.762;2023-03-26T12:27:56;99907.16;;;10.21;77.94
9009;BME280;62813;51.424;6.762;2023-03-26T12:30:35;99909.00;;;10.19;77.98
9009;BME280;62813;51.424;6.762;2023-03-26T12:33:18;99903.72;;;10.04;77.84
9009;BME280;62813;51.424;6.762;2023-03-26T12:35:45;99905.34;;;10.23;78.27
9009;BME280;62813;51.424;6.762;2023-03-26T12:38:24;99904.69;;;10.35;78.65
9009;BME280;62813;51.424;6.762;2023-03-26T12:41:11;99891.97;;;10.46;79.70
9009;BME280;62813;51.424;6.762;2023-03-26T12:44:56;99896.84;;;10.52;78.72
9009;BME280;62813;51.424;6.762;2023-03-26T12:47:27;99900.94;;;10.56;77.97
9009;BME280;62813;51.424;6.762;2023-03-26T12:50:15;99892.06;;;10.60;77.74
9009;BME280;62813;51.424;6.762;2023-03-26T12:53:10;99898.16;;;10.28;78.87
9009;BME280;62813;51.424;6.762;2023-03-26T12:56:03;99908.94;;;10.20;78.21
9009;BME280;62813;51.424;6.762;2023-03-26T13:15:58;99889.66;;;10.57;76.41
9009;BME280;62813;51.424;6.762;2023-03-26T13:18:52;99893.00;;;10.59;76.03
9009;BME280;62813;51.424;6.762;2023-03-26T13:29:55;99903.69;;;10.53;73.76
9009;BME280;62813;51.424;6.762;2023-03-26T13:35:11;99896.66;;;10.55;72.75
9009;BME280;62813;51.424;6.762;2023-03-26T13:46:33;99912.03;;;10.27;75.74
9009;BME280;62813;51.424;6.762;2023-03-26T13:48:32;99912.19;;;10.08;76.88
9009;BME280;62813;51.424;6.762;2023-03-26T13:51:11;99914.78;;;10.08;76.97
9009;BME280;62813;51.424;6.762;2023-03-26T13:56:41;99918.53;;;9.85;77.79
9009;BME280;62813;51.424;6.762;2023-03-26T13:59:15;99924.19;;;9.93;78.48
9009;BME280;62813;51.424;6.762;2023-03-26T14:02:08;99923.41;;;9.91;77.94
9009;BME280;62813;51.424;6.762;2023-03-26T14:04:46;99919.47;;;9.84;78.42
9009;BME280;62813;51.424;6.762;2023-03-26T14:07:18;99922.66;;;9.89;79.17
9009;BME280;62813;51.424;6.762;2023-03-26T14:18:19;99938.03;;;10.10;79.13
9009;BME280;62813;51.424;6.762;2023-03-26T14:21:06;99938.44;;;10.02;79.18
9009;BME280;62813;51.424;6.762;2023-03-26T14:23:57;99937.22;;;9.92;78.84
9009;BME280;62813;51.424;6.762;2023-03-26T14:33:08;99947.22;;;9.65;81.41
9009;BME280;62813;51.424;6.762;2023-03-26T14:46:30;99958.03;;;9.38;81.35
9009;BME280;62813;51.424;6.762;2023-03-26T14:54:17;99963.22;;;9.38;83.31
9009;BME280;62813;51.424;6.762;2023-03-26T15:08:40;99995.91;;;9.22;84.40
9009;BME280;62813;51.424;6.762;2023-03-26T15:20:49;100006.66;;;8.95;84.96
9009;BME280;62813;51.424;6.762;2023-03-26T15:23:44;100004.09;;;8.94;85.55
9009;BME280;62813;51.424;6.762;2023-03-26T15:32:02;100022.16;;;8.95;86.51
9009;BME280;62813;51.424;6.762;2023-03-26T15:43:01;100030.13;;;8.72;88.86
9009;BME280;62813;51.424;6.762;2023-03-26T15:48:30;100034.91;;;8.81;87.92
9009;BME280;62813;51.424;6.762;2023-03-26T15:51:20;100041.59;;;8.85;87.88
9009;BME280;62813;51.424;6.762;2023-03-26T15:54:20;100050.84;;;8.91;87.94
9009;BME280;62813;51.424;6.762;2023-03-26T15:57:12;100050.19;;;8.86;88.29
9009;BME280;62813;51.424;6.762;2023-03-26T16:00:05;100058.69;;;8.89;87.91
9009;BME280;62813;51.424;6.762;2023-03-26T16:02:52;100058.94;;;8.83;87.88
9009;BME280;62813;51.424;6.762;2023-03-26T16:05:30;100063.63;;;8.75;88.92
9009;BME280;62813;51.424;6.762;2023-03-26T16:10:53;100078.41;;;8.53;88.04
9009;BME280;62813;51.424;6.762;2023-03-26T16:15:55;100084.81;;;8.44;87.45
9009;BME280;62813;51.424;6.762;2023-03-26T16:32:13;100124.19;;;8.51;85.04
9009;BME280;62813;51.424;6.762;2023-03-26T16:34:48;100129.34;;;8.51;83.98
9009;BME280;62813;51.424;6.762;2023-03-26T16:48:16;100151.53;;;8.36;83.66
9009;BME280;62813;51.424;6.762;2023-03-26T16:51:08;100170.34;;;8.39;83.24
9009;BME280;62813;51.424;6.762;2023-03-26T16:54:33;100166.38;;;8.31;82.54
9009;BME280;62813;51.424;6.762;2023-03-26T17:03:03;100184.38;;;8.34;83.02
9009;BME280;62813;51.424;6.762;2023-03-26T17:05:16;100193.63;;;8.39;83.69
9009;BME280;62813;51.424;6.762;2023-03-26T17:08:00;100200.34;;;8.44;83.14
9009;BME280;62813;51.424;6.762;2023-03-26T17:10:35;100207.19;;;8.45;83.37
9009;BME280;62813;51.424;6.762;2023-03-26T17:13:09;100202.28;;;8.38;83.01
9009;BME280;62813;51.424;6.762;2023-03-26T17:21:53;100248.78;;;8.40;82.19
9009;BME280;62813;51.424;6.762;2023-03-26T17:30:04;;;;8.42;
9009;BME280;62813;51.424;6.762;2023-03-26T17:40:45;100275.28;;;8.23;77.77
9009;BME280;62813;51.424;6.762;2023-03-26T17:43:33;100283.41;;;8.14;77.26
9009;BME280;62813;51.424;6.762;2023-03-26T17:46:41;100288.56;;;8.14;76.78
9009;BME280;62813;51.424;6.762;2023-03-26T17:51:43;100302.41;;;8.13;75.00
9009;BME280;62813;51.424;6.762;2023-03-26T17:54:38;100316.28;;;8.10;74.04
9009;BME280;62813;51.424;6.762;2023-03-26T17:57:12;100309.25;;;8.14;74.25
9009;BME280;62813;51.424;6.762;2023-03-26T17:59:41;100321.50;;;8.09;73.69
9009;BME280;62813;51.424;6.762;2023-03-26T18:02:18;100331.91;;;8.07;73.60
9009;BME280;62813;51.424;6.762;2023-03-26T18:04:49;100338.94;;;8.04;73.48
9009;BME280;62813;51.424;6.762;2023-03-26T18:07:32;100348.31;;;8.06;73.97
9009;BME280;62813;51.424;6.762;2023-03-26T18:10:27;100351.88;;;8.04;74.15
9009;BME280;62813;51.424;6.762;2023-03-26T18:18:17;100365.00;;;7.98;74.45
9009;BME280;62813;51.424;6.762;2023-03-26T18:20:47;100371.84;;;7.99;74.42
9009;BME280;62813;51.424;6.762;2023-03-26T18:23:25;100376.97;;;8.00;73.89
9009;BME280;62813;51.424;6.762;2023-03-26T18:28:53;100383.19;;;7.95;72.84
9009;BME280;62813;51.424;6.762;2023-03-26T18:31:33;100394.63;;;7.89;72.29
9009;BME280;62813;51.424;6.762;2023-03-26T18:34:10;100405.25;;;7.80;71.71
9009;BME280;62813;51.424;6.762;2023-03-26T18:36:38;100408.75;;;7.79;71.94
9009;BME280;62813;51.424;6.762;2023-03-26T18:39:10;100404.31;;;7.82;71.38
9009;BME280;62813;51.424;6.762;2023-03-26T18:41:39;100423.50;;;7.75;71.31
9009;BME280;62813;51.424;6.762;2023-03-26T18:44:15;100418.38;;;7.74;71.08
9009;BME280;62813;51.424;6.762;2023-03-26T18:46:43;100427.59;;;7.81;70.58
9009;BME280;62813;51.424;6.762;2023-03-26T18:49:16;100436.44;;;7.75;69.13
9009;BME280;62813;51.424;6.762;2023-03-26T18:51:43;100442.38;;;7.77;69.85
9009;BME280;62813;51.424;6.762;2023-03-26T18:54:22;100446.78;;;7.74;68.67
9009;BME280;62813;51.424;6.762;2023-03-26T18:56:50;100447.75;;;7.71;68.55
9009;BME280;62813;51.424;6.762;2023-03-26T18:59:19;100453.19;;;7.64;67.80
9009;BME280;62813;51.424;6.762;2023-03-26T19:01:47;100467.25;;;7.55;67.58
9009;BME280;62813;51.424;6.762;2023-03-26T19:04:16;100463.06;;;7.51;68.11
9009;BME280;62813;51.424;6.762;2023-03-26T19:06:43;100470.94;;;7.48;67.69
9009;BME280;62813;51.424;6.762;2023-03-26T19:09:11;100474.25;;;7.51;67.58
9009;BME280;62813;51.424;6.762;2023-03-26T19:12:03;100479.66;;;7.44;66.84
9009;BME280;62813;51.424;6.762;2023-03-26T19:14:30;100497.69;;;7.45;66.77